Time;durP1;ratioP1;P1;durP2;ratioP2;P2;SDS_P1;SDS_P2;PMS_P1;PMS_P2;Temp;Humidity;BMP_temperature;BMP_pressure;BME280_temperature;BME280_humidity;BME280_pressure;Samples;Min_cycle;Max_cycle;Signal;HPM_P1;HPM_P2
2022/11/09 00:00:45;;;;;;;28.17;5.15;;;;;;;;;;4985599;28;20022;-62
2022/11/09 00:03:11;;;;;;;26.50;4.43;;;;;;;;;;4983703;28;20086;-62
2022/11/09 00:05:37;;;;;;;27.85;5.05;;;;;;;;;;4990939;28;20375;-62
2022/11/09 00:08:10;;;;;;;15.45;3.55;;;;;;;;;;4984577;28;20368;-62
2022/11/09 00:10:36;;;;;;;22.23;4.28;;;;;;;;;;4977798;28;20027;-62
2022/11/09 00:13:03;;;;;;;21.40;3.30;;;;;;;;;;4975743;28;20062;-62
2022/11/09 00:15:29;;;;;;;23.75;5.05;;;;;;;;;;4987317;28;20027;-62
2022/11/09 00:17:55;;;;;;;14.48;3.15;;;;;;;;;;4989392;28;20038;-62
2022/11/09 00:20:21;;;;;;;17.88;3.88;;;;;;;;;;4983674;28;20113;-62
2022/11/09 00:22:48;;;;;;;21.98;3.60;;;;;;;;;;4991275;28;20029;-62
2022/11/09 00:25:14;;;;;;;22.05;3.50;;;;;;;;;;4991416;28;20034;-62
2022/11/09 00:27:40;;;;;;;25.70;4.10;;;;;;;;;;4986322;28;20469;-62
2022/11/09 00:30:09;;;;;;;21.77;3.58;;;;;;;;;;4989200;28;20047;-62
2022/11/09 00:32:35;;;;;;;31.13;4.70;;;;;;;;;;4981214;28;20065;-62
2022/11/09 00:35:01;;;;;;;24.55;4.00;;;;;;;;;;4987885;28;20027;-62
2022/11/09 00:37:29;;;;;;;26.13;5.18;;;;;;;;;;4984644;28;20503;-62
2022/11/09 00:39:55;;;;;;;30.33;4.32;;;;;;;;;;4986576;28;20118;-62
2022/11/09 00:42:21;;;;;;;28.33;5.63;;;;;;;;;;4980892;28;20019;-62
2022/11/09 00:44:49;;;;;;;23.55;4.35;;;;;;;;;;4976873;28;20045;-62
2022/11/09 00:47:15;;;;;;;31.67;4.80;;;;;;;;;;4987602;28;20113;-62
2022/11/09 00:49:41;;;;;;;29.13;5.70;;;;;;;;;;4985241;28;20108;-62
2022/11/09 00:52:08;;;;;;;29.75;4.70;;;;;;;;;;4983116;28;20030;-62
2022/11/09 00:54:34;;;;;;;24.73;4.22;;;;;;;;;;4980046;28;20058;-62
2022/11/09 00:57:01;;;;;;;20.77;3.63;;;;;;;;;;4976876;28;20026;-62
2022/11/09 00:59:28;;;;;;;26.42;5.03;;;;;;;;;;4987271;28;20040;-62
2022/11/09 01:01:54;;;;;;;30.23;5.25;;;;;;;;;;4975366;28;20449;-62
2022/11/09 01:04:20;;;;;;;27.88;4.28;;;;;;;;;;4986519;28;20046;-62
2022/11/09 01:06:46;;;;;;;23.25;4.47;;;;;;;;;;4982904;28;20065;-62
2022/11/09 01:09:12;;;;;;;19.45;3.35;;;;;;;;;;4985211;28;20122;-62
2022/11/09 01:11:38;;;;;;;25.20;3.95;;;;;;;;;;4975034;28;20031;-62
2022/11/09 01:14:04;;;;;;;26.50;4.55;;;;;;;;;;4989263;28;20026;-62
2022/11/09 01:16:30;;;;;;;22.42;3.28;;;;;;;;;;4997109;28;20065;-62
2022/11/09 01:18:57;;;;;;;22.48;3.75;;;;;;;;;;5036210;28;20079;-62
2022/11/09 01:21:24;;;;;;;20.23;3.38;;;;;;;;;;5000470;28;20058;-62
2022/11/09 01:23:50;;;;;;;21.85;3.70;;;;;;;;;;4976315;28;20057;-62
2022/11/09 01:26:16;;;;;;;23.40;3.72;;;;;;;;;;4990760;28;20014;-62
2022/11/09 01:28:43;;;;;;;16.95;3.55;;;;;;;;;;4974187;28;20027;-62
2022/11/09 01:31:11;;;;;;;20.25;3.78;;;;;;;;;;4975974;28;20041;-62
2022/11/09 01:33:38;;;;;;;19.35;3.45;;;;;;;;;;4985804;28;20045;-62
2022/11/09 01:36:09;;;;;;;21.58;3.67;;;;;;;;;;4978905;28;20025;-62
2022/11/09 01:38:38;;;;;;;21.15;5.65;;;;;;;;;;4974700;28;20034;-62
2022/11/09 01:41:05;;;;;;;17.50;3.53;;;;;;;;;;4990324;28;20101;-61
2022/11/09 01:43:33;;;;;;;20.83;3.15;;;;;;;;;;4988965;28;20030;-62
2022/11/09 01:46:12;;;;;;;17.45;5.68;;;;;;;;;;4989643;28;20019;-62
2022/11/09 01:48:45;;;;;;;21.63;3.17;;;;;;;;;;4988912;28;20033;-62
2022/11/09 01:51:14;;;;;;;16.27;2.97;;;;;;;;;;5009639;28;20033;-62
2022/11/09 01:53:41;;;;;;;21.85;3.25;;;;;;;;;;4971395;28;20023;-62
2022/11/09 01:56:10;;;;;;;23.45;3.63;;;;;;;;;;4972853;28;20027;-62
2022/11/09 01:58:43;;;;;;;25.73;4.95;;;;;;;;;;4979628;28;20099;-62
2022/11/09 02:01:10;;;;;;;17.40;2.97;;;;;;;;;;4996070;28;20035;-62
2022/11/09 02:03:40;;;;;;;10.90;3.00;;;;;;;;;;4990878;28;20047;-62
2022/11/09 02:06:07;;;;;;;31.73;3.55;;;;;;;;;;4989614;28;20063;-62
2022/11/09 02:08:34;;;;;;;18.20;3.38;;;;;;;;;;4980856;28;20030;-62
2022/11/09 02:11:06;;;;;;;19.75;2.42;;;;;;;;;;4991317;28;20026;-61
2022/11/09 02:13:33;;;;;;;18.80;3.00;;;;;;;;;;4987855;28;20514;-62
2022/11/09 02:16:05;;;;;;;23.83;5.53;;;;;;;;;;4988761;28;20042;-62
2022/11/09 02:18:32;;;;;;;31.83;4.13;;;;;;;;;;4985883;28;20034;-62
2022/11/09 02:21:00;;;;;;;19.70;3.28;;;;;;;;;;4969908;28;20114;-62
2022/11/09 02:23:27;;;;;;;21.67;4.32;;;;;;;;;;4981569;28;20102;-62
2022/11/09 02:26:03;;;;;;;16.85;3.35;;;;;;;;;;4972303;28;20130;-62
2022/11/09 02:28:30;;;;;;;16.67;2.83;;;;;;;;;;4981288;28;20557;-62
2022/11/09 02:30:58;;;;;;;14.73;3.00;;;;;;;;;;4976637;28;20358;-62
2022/11/09 02:33:25;;;;;;;17.95;3.55;;;;;;;;;;4969629;28;20031;-62
2022/11/09 02:35:52;;;;;;;20.38;2.85;;;;;;;;;;4973058;28;20058;-62
2022/11/09 02:38:18;;;;;;;23.15;2.67;;;;;;;;;;4987392;28;20038;-62
2022/11/09 02:40:47;;;;;;;14.05;2.65;;;;;;;;;;4974075;28;20580;-62
2022/11/09 02:43:14;;;;;;;31.00;3.70;;;;;;;;;;4975956;28;20037;-62
2022/11/09 02:45:40;;;;;;;12.65;2.60;;;;;;;;;;4990261;28;20407;-61
2022/11/09 02:48:06;;;;;;;17.73;2.22;;;;;;;;;;4983424;28;20057;-62
2022/11/09 02:50:35;;;;;;;14.68;2.28;;;;;;;;;;4983637;28;20453;-61
2022/11/09 02:53:02;;;;;;;8.10;1.95;;;;;;;;;;4988376;28;20034;-62
2022/11/09 02:55:32;;;;;;;13.57;1.95;;;;;;;;;;4989418;28;20079;-62
2022/11/09 02:57:58;;;;;;;8.80;1.48;;;;;;;;;;4989443;28;20064;-62
2022/11/09 03:00:25;;;;;;;15.60;2.85;;;;;;;;;;4989362;28;20471;-62
2022/11/09 03:02:51;;;;;;;6.82;1.65;;;;;;;;;;4988564;28;20049;-62
2022/11/09 03:05:18;;;;;;;9.93;1.27;;;;;;;;;;4988192;28;20418;-62
2022/11/09 03:07:45;;;;;;;3.97;1.00;;;;;;;;;;4988462;28;20049;-62
2022/11/09 03:10:11;;;;;;;8.23;1.30;;;;;;;;;;4989526;28;20456;-62
2022/11/09 03:12:38;;;;;;;8.05;1.65;;;;;;;;;;4989132;28;20510;-62
2022/11/09 03:15:08;;;;;;;11.60;1.10;;;;;;;;;;4987368;28;20495;-62
2022/11/09 03:17:36;;;;;;;6.30;1.20;;;;;;;;;;4988746;28;20026;-63
2022/11/09 03:20:02;;;;;;;8.93;1.30;;;;;;;;;;4989281;28;20109;-62
2022/11/09 03:22:29;;;;;;;2.88;1.00;;;;;;;;;;4982029;28;20035;-63
2022/11/09 03:24:55;;;;;;;3.42;1.25;;;;;;;;;;4984645;28;20056;-62
2022/11/09 03:27:23;;;;;;;5.63;1.00;;;;;;;;;;4974917;28;20447;-62
2022/11/09 03:29:49;;;;;;;4.05;0.98;;;;;;;;;;4985429;28;20103;-62
2022/11/09 03:32:15;;;;;;;5.72;1.00;;;;;;;;;;4988169;28;20051;-62
2022/11/09 03:34:42;;;;;;;9.30;1.17;;;;;;;;;;4977968;28;20027;-62
2022/11/09 03:37:10;;;;;;;4.78;0.70;;;;;;;;;;4988500;28;20034;-62
2022/11/09 03:39:36;;;;;;;7.43;1.00;;;;;;;;;;4984899;28;20035;-62
2022/11/09 03:42:03;;;;;;;6.78;0.85;;;;;;;;;;4976068;28;20070;-62
2022/11/09 03:44:29;;;;;;;2.15;0.70;;;;;;;;;;4985435;28;20026;-62
2022/11/09 03:46:55;;;;;;;3.85;0.90;;;;;;;;;;4982584;28;20033;-62
2022/11/09 03:49:22;;;;;;;3.85;0.73;;;;;;;;;;4980040;28;20419;-62
2022/11/09 03:51:49;;;;;;;7.25;1.10;;;;;;;;;;4979039;28;20042;-62
2022/11/09 03:54:15;;;;;;;4.57;1.00;;;;;;;;;;4989134;28;20044;-62
2022/11/09 03:56:41;;;;;;;2.50;0.90;;;;;;;;;;4985350;28;20042;-62
2022/11/09 03:59:07;;;;;;;5.97;1.25;;;;;;;;;;4984727;28;20026;-62
2022/11/09 04:01:34;;;;;;;3.97;0.85;;;;;;;;;;4989429;28;20549;-62
2022/11/09 04:04:00;;;;;;;7.95;1.17;;;;;;;;;;4991820;28;20038;-62
2022/11/09 04:06:26;;;;;;;10.98;1.20;;;;;;;;;;4990367;28;20037;-62
2022/11/09 04:08:52;;;;;;;5.60;0.95;;;;;;;;;;4992620;28;20027;-62
2022/11/09 04:11:18;;;;;;;6.38;1.83;;;;;;;;;;4989745;28;20030;-62
2022/11/09 04:13:46;;;;;;;6.00;1.00;;;;;;;;;;4977101;28;20076;-62
2022/11/09 04:16:12;;;;;;;2.35;0.93;;;;;;;;;;4991920;28;20039;-62
2022/11/09 04:18:38;;;;;;;8.05;1.65;;;;;;;;;;4986097;28;20026;-62
2022/11/09 04:21:04;;;;;;;2.97;1.48;;;;;;;;;;4981412;28;20372;-62
2022/11/09 04:23:30;;;;;;;11.30;1.33;;;;;;;;;;4991213;28;20075;-62
2022/11/09 04:25:58;;;;;;;7.75;1.17;;;;;;;;;;4991109;28;20467;-62
2022/11/09 04:28:25;;;;;;;6.72;1.17;;;;;;;;;;4978140;28;20479;-62
2022/11/09 04:30:51;;;;;;;7.47;1.77;;;;;;;;;;4988750;28;20056;-62
2022/11/09 04:33:17;;;;;;;7.50;1.08;;;;;;;;;;4988868;28;20078;-62
2022/11/09 04:35:43;;;;;;;10.93;1.52;;;;;;;;;;4977508;28;20031;-62
2022/11/09 04:38:11;;;;;;;11.68;1.65;;;;;;;;;;4988672;28;20123;-62
2022/11/09 04:40:37;;;;;;;5.80;1.33;;;;;;;;;;4977816;28;20038;-62
2022/11/09 04:43:04;;;;;;;20.95;3.22;;;;;;;;;;4982695;28;20030;-63
2022/11/09 04:45:32;;;;;;;10.07;1.95;;;;;;;;;;4986008;28;20498;-62
2022/11/09 04:47:58;;;;;;;10.52;1.90;;;;;;;;;;4990505;28;20552;-62
2022/11/09 04:50:25;;;;;;;6.50;1.70;;;;;;;;;;4987409;28;20034;-62
2022/11/09 04:52:51;;;;;;;9.88;1.52;;;;;;;;;;4984690;28;20027;-62
2022/11/09 04:55:17;;;;;;;16.08;4.18;;;;;;;;;;4982482;28;20026;-62
2022/11/09 04:57:43;;;;;;;8.68;1.88;;;;;;;;;;4991553;28;20030;-62
2022/11/09 05:00:10;;;;;;;15.90;2.20;;;;;;;;;;4974059;28;20488;-62
2022/11/09 05:02:36;;;;;;;14.23;2.05;;;;;;;;;;4984577;28;20037;-62
2022/11/09 05:05:02;;;;;;;14.00;2.00;;;;;;;;;;4987939;28;20087;-62
2022/11/09 05:07:28;;;;;;;21.77;2.67;;;;;;;;;;4980626;28;20105;-62
2022/11/09 05:09:54;;;;;;;14.23;1.98;;;;;;;;;;4988145;28;20030;-62
2022/11/09 05:12:20;;;;;;;14.90;2.35;;;;;;;;;;4984341;28;20030;-62
2022/11/09 05:14:46;;;;;;;13.93;2.60;;;;;;;;;;4990556;28;20030;-62
2022/11/09 05:17:12;;;;;;;18.67;2.92;;;;;;;;;;4981629;28;20084;-62
2022/11/09 05:19:38;;;;;;;13.82;2.00;;;;;;;;;;4982281;28;20081;-62
2022/11/09 05:25:03;;;;;;;15.25;2.20;;;;;;;;;;5005052;28;20046;-62
2022/11/09 05:27:29;;;;;;;19.00;2.20;;;;;;;;;;4987484;28;20027;-62
2022/11/09 05:29:55;;;;;;;15.00;2.22;;;;;;;;;;4975989;28;20038;-62
2022/11/09 05:32:21;;;;;;;14.90;2.25;;;;;;;;;;4987578;28;20034;-62
2022/11/09 05:34:47;;;;;;;17.48;2.42;;;;;;;;;;4975801;28;20431;-62
2022/11/09 05:37:13;;;;;;;16.77;1.88;;;;;;;;;;4982925;28;20037;-62
2022/11/09 05:39:39;;;;;;;17.45;2.40;;;;;;;;;;4973867;28;20132;-62
2022/11/09 05:42:05;;;;;;;16.55;2.10;;;;;;;;;;4979246;28;20500;-62
2022/11/09 05:44:31;;;;;;;13.23;2.00;;;;;;;;;;4983699;28;20383;-62
2022/11/09 05:46:58;;;;;;;10.05;2.05;;;;;;;;;;4979976;28;20022;-62
2022/11/09 05:49:24;;;;;;;19.05;2.15;;;;;;;;;;4983861;28;20030;-62
2022/11/09 05:51:50;;;;;;;9.38;1.88;;;;;;;;;;5001106;28;20030;-65
2022/11/09 05:54:16;;;;;;;16.08;1.90;;;;;;;;;;4980063;28;20058;-62
2022/11/09 05:56:42;;;;;;;13.63;2.80;;;;;;;;;;5009995;28;20038;-62
2022/11/09 05:59:08;;;;;;;16.30;2.58;;;;;;;;;;4979066;28;20023;-62
2022/11/09 06:01:34;;;;;;;12.27;2.20;;;;;;;;;;4984447;28;20080;-62
2022/11/09 06:04:01;;;;;;;23.05;2.58;;;;;;;;;;4983870;28;20542;-62
2022/11/09 06:06:28;;;;;;;17.65;2.42;;;;;;;;;;4973978;28;20496;-62
2022/11/09 06:08:54;;;;;;;12.80;2.05;;;;;;;;;;4991397;28;20026;-62
2022/11/09 06:11:21;;;;;;;15.13;2.22;;;;;;;;;;4978056;28;20027;-62
2022/11/09 06:13:48;;;;;;;20.08;2.35;;;;;;;;;;4975296;28;20039;-62
2022/11/09 06:16:14;;;;;;;19.90;2.55;;;;;;;;;;4971223;28;20129;-62
2022/11/09 06:18:40;;;;;;;17.45;2.22;;;;;;;;;;4980274;28;20129;-62
2022/11/09 06:21:06;;;;;;;20.65;2.53;;;;;;;;;;4987070;28;20033;-62
2022/11/09 06:23:33;;;;;;;19.02;2.83;;;;;;;;;;4988957;28;20030;-62
2022/11/09 06:26:00;;;;;;;14.52;2.65;;;;;;;;;;4988133;28;20479;-62
2022/11/09 06:28:26;;;;;;;15.93;3.30;;;;;;;;;;4984355;28;20029;-62
2022/11/09 06:30:53;;;;;;;18.05;2.47;;;;;;;;;;4975387;28;20035;-62
2022/11/09 06:33:19;;;;;;;18.67;2.67;;;;;;;;;;4986338;28;20042;-62
2022/11/09 06:35:45;;;;;;;16.20;2.30;;;;;;;;;;4983452;28;20376;-62
2022/11/09 06:38:11;;;;;;;17.17;2.90;;;;;;;;;;4981725;28;20385;-62
2022/11/09 06:40:38;;;;;;;28.13;3.30;;;;;;;;;;4979575;28;20042;-61
2022/11/09 06:43:04;;;;;;;18.30;2.63;;;;;;;;;;4988420;28;20015;-62
2022/11/09 06:45:31;;;;;;;14.68;3.15;;;;;;;;;;4980047;28;20041;-61
2022/11/09 06:47:58;;;;;;;18.13;2.92;;;;;;;;;;4978181;28;20026;-61
2022/11/09 06:50:24;;;;;;;22.38;2.92;;;;;;;;;;4986392;28;20111;-62
2022/11/09 06:52:50;;;;;;;13.93;2.10;;;;;;;;;;4984012;28;20509;-62
2022/11/09 06:55:16;;;;;;;14.25;2.40;;;;;;;;;;4980773;28;20018;-62
2022/11/09 06:57:42;;;;;;;19.90;2.63;;;;;;;;;;4973528;28;20118;-62
2022/11/09 07:00:09;;;;;;;16.02;3.00;;;;;;;;;;4981739;28;20105;-62
2022/11/09 07:02:35;;;;;;;13.60;2.40;;;;;;;;;;4983014;28;20030;-61
2022/11/09 07:05:01;;;;;;;8.57;2.13;;;;;;;;;;4983849;28;20542;-61
2022/11/09 07:07:27;;;;;;;22.23;3.25;;;;;;;;;;4986700;28;20105;-62
2022/11/09 07:09:54;;;;;;;20.30;2.92;;;;;;;;;;4980709;28;20039;-62
2022/11/09 07:12:20;;;;;;;17.02;3.05;;;;;;;;;;4983844;28;20066;-61
2022/11/09 07:14:46;;;;;;;18.50;2.90;;;;;;;;;;4981268;28;20042;-62
2022/11/09 07:17:12;;;;;;;17.17;2.83;;;;;;;;;;4983623;28;20034;-62
2022/11/09 07:19:38;;;;;;;22.05;2.65;;;;;;;;;;4981562;28;20031;-61
2022/11/09 07:22:05;;;;;;;17.90;3.03;;;;;;;;;;4985763;28;20057;-61
2022/11/09 07:24:31;;;;;;;21.45;3.53;;;;;;;;;;4980587;28;20400;-62
2022/11/09 07:26:57;;;;;;;22.42;3.22;;;;;;;;;;4980615;28;20030;-62
2022/11/09 07:29:23;;;;;;;24.25;2.97;;;;;;;;;;4986250;28;20375;-61
2022/11/09 07:31:49;;;;;;;18.63;3.40;;;;;;;;;;4981609;28;20113;-61
2022/11/09 07:34:15;;;;;;;13.35;4.10;;;;;;;;;;4978645;28;20023;-61
2022/11/09 07:36:41;;;;;;;14.57;5.43;;;;;;;;;;4980620;28;20034;-61
2022/11/09 07:39:07;;;;;;;17.35;3.72;;;;;;;;;;4985102;28;20030;-61
2022/11/09 07:41:33;;;;;;;21.50;4.35;;;;;;;;;;4987243;28;20061;-62
2022/11/09 07:44:00;;;;;;;17.42;6.10;;;;;;;;;;4974511;28;20034;-61
2022/11/09 07:46:26;;;;;;;18.65;5.63;;;;;;;;;;4986620;28;20031;-61
2022/11/09 07:48:52;;;;;;;25.75;6.22;;;;;;;;;;4979622;28;20361;-61
2022/11/09 07:51:18;;;;;;;20.45;5.18;;;;;;;;;;4984348;28;20467;-61
2022/11/09 07:53:44;;;;;;;23.40;5.03;;;;;;;;;;4980200;28;20489;-63
2022/11/09 07:56:10;;;;;;;21.88;6.95;;;;;;;;;;4975571;28;20520;-61
2022/11/09 07:58:36;;;;;;;18.02;4.18;;;;;;;;;;4972389;28;20038;-62
2022/11/09 08:01:07;;;;;;;15.90;3.72;;;;;;;;;;4974113;28;20023;-62
2022/11/09 08:03:33;;;;;;;21.65;3.63;;;;;;;;;;4973698;28;20042;-61
2022/11/09 08:05:59;;;;;;;13.93;2.80;;;;;;;;;;4976197;28;20428;-61
2022/11/09 08:08:25;;;;;;;13.70;2.60;;;;;;;;;;4973287;28;20027;-62
2022/11/09 08:10:52;;;;;;;17.00;2.35;;;;;;;;;;4984894;28;20057;-61
2022/11/09 08:13:18;;;;;;;20.40;2.50;;;;;;;;;;4985781;28;20408;-62
2022/11/09 08:15:44;;;;;;;12.43;2.53;;;;;;;;;;4974064;28;20072;-62
2022/11/09 08:18:15;;;;;;;14.43;4.28;;;;;;;;;;4973751;28;20030;-61
2022/11/09 08:20:41;;;;;;;12.20;3.15;;;;;;;;;;4993871;28;20026;-61
2022/11/09 08:23:07;;;;;;;14.93;4.13;;;;;;;;;;4987317;28;20542;-61
2022/11/09 08:25:34;;;;;;;17.50;2.90;;;;;;;;;;4981052;28;20026;-61
2022/11/09 08:28:00;;;;;;;18.55;3.28;;;;;;;;;;4983647;28;20026;-61
2022/11/09 08:30:26;;;;;;;10.48;2.35;;;;;;;;;;4990181;28;20132;-61
2022/11/09 08:32:53;;;;;;;19.15;3.47;;;;;;;;;;4989315;28;20506;-61
2022/11/09 08:35:20;;;;;;;29.23;3.17;;;;;;;;;;4989857;28;20488;-62
2022/11/09 08:37:47;;;;;;;25.10;3.85;;;;;;;;;;4983420;28;20038;-61
2022/11/09 08:40:15;;;;;;;22.70;2.92;;;;;;;;;;4973640;28;20038;-61
2022/11/09 08:42:41;;;;;;;16.60;3.70;;;;;;;;;;4980352;28;20114;-61
2022/11/09 08:45:07;;;;;;;11.98;2.28;;;;;;;;;;4989417;28;20046;-61
2022/11/09 08:47:33;;;;;;;19.10;2.83;;;;;;;;;;4990003;28;20498;-61
2022/11/09 08:50:00;;;;;;;20.02;3.92;;;;;;;;;;4987936;28;20037;-61
2022/11/09 08:52:26;;;;;;;21.73;2.85;;;;;;;;;;4990293;28;20110;-61
2022/11/09 08:54:52;;;;;;;11.68;2.35;;;;;;;;;;4984487;28;20502;-61
2022/11/09 08:57:19;;;;;;;17.05;3.22;;;;;;;;;;4988690;28;20023;-61
2022/11/09 08:59:45;;;;;;;14.35;2.20;;;;;;;;;;4983403;28;20056;-61
2022/11/09 09:02:12;;;;;;;11.90;2.85;;;;;;;;;;4988668;28;20033;-61
2022/11/09 09:04:38;;;;;;;17.38;2.70;;;;;;;;;;4986541;28;20074;-62
2022/11/09 09:07:05;;;;;;;17.48;3.03;;;;;;;;;;4991006;28;20048;-61
2022/11/09 09:09:31;;;;;;;24.45;4.47;;;;;;;;;;4986335;28;20061;-61
2022/11/09 09:11:57;;;;;;;22.85;4.43;;;;;;;;;;4989812;28;20062;-61
2022/11/09 09:14:23;;;;;;;20.55;3.70;;;;;;;;;;4989486;28;20441;-61
2022/11/09 09:16:50;;;;;;;17.60;2.65;;;;;;;;;;4989056;28;20030;-61
2022/11/09 09:19:16;;;;;;;19.88;2.67;;;;;;;;;;4988119;28;20069;-61
2022/11/09 09:21:42;;;;;;;17.98;3.75;;;;;;;;;;4987158;28;20022;-61
2022/11/09 09:24:09;;;;;;;17.83;3.33;;;;;;;;;;4991133;28;20422;-61
2022/11/09 09:26:35;;;;;;;18.10;2.75;;;;;;;;;;4990504;28;20038;-61
2022/11/09 09:29:01;;;;;;;17.52;3.08;;;;;;;;;;4989211;28;20420;-61
2022/11/09 09:31:27;;;;;;;19.13;2.83;;;;;;;;;;4988230;28;20041;-61
2022/11/09 09:33:53;;;;;;;21.45;4.43;;;;;;;;;;4988472;28;20091;-61
2022/11/09 09:36:21;;;;;;;15.50;2.90;;;;;;;;;;4988777;28;20027;-61
2022/11/09 09:38:50;;;;;;;20.85;3.15;;;;;;;;;;4979958;28;20488;-61
2022/11/09 09:41:23;;;;;;;21.60;3.00;;;;;;;;;;4987125;28;20040;-61
2022/11/09 09:43:50;;;;;;;22.65;3.38;;;;;;;;;;4982013;28;20383;-61
2022/11/09 09:46:35;;;;;;;22.67;4.55;;;;;;;;;;4988638;28;20033;-61
2022/11/09 09:49:01;;;;;;;20.80;4.20;;;;;;;;;;4978305;28;20127;-61
2022/11/09 09:51:32;;;;;;;22.20;4.32;;;;;;;;;;4986443;28;20043;-61
2022/11/09 09:54:12;;;;;;;21.88;4.25;;;;;;;;;;4985796;28;20145;-61
2022/11/09 09:56:43;;;;;;;19.70;4.43;;;;;;;;;;4978931;28;20088;-61
2022/11/09 09:59:14;;;;;;;30.85;4.60;;;;;;;;;;4989229;28;20040;-61
2022/11/09 10:01:42;;;;;;;21.33;3.97;;;;;;;;;;4985655;28;20058;-61
2022/11/09 10:04:17;;;;;;;20.55;3.67;;;;;;;;;;4986541;28;20049;-65
2022/11/09 10:07:07;;;;;;;24.63;3.95;;;;;;;;;;4981749;28;20407;-61
2022/11/09 10:09:45;;;;;;;20.40;3.63;;;;;;;;;;4988307;28;20105;-62
2022/11/09 10:12:14;;;;;;;23.17;3.67;;;;;;;;;;4987202;28;20045;-61
2022/11/09 10:14:40;;;;;;;19.63;3.10;;;;;;;;;;4978631;28;20039;-61
2022/11/09 10:17:12;;;;;;;20.80;3.75;;;;;;;;;;4988447;28;20480;-61
2022/11/09 10:19:54;;;;;;;15.52;3.17;;;;;;;;;;4986528;28;20121;-62
2022/11/09 10:22:29;;;;;;;26.50;3.63;;;;;;;;;;4987510;28;20157;-61
2022/11/09 10:24:59;;;;;;;14.77;3.10;;;;;;;;;;4983128;28;20057;-61
2022/11/09 10:27:26;;;;;;;23.10;4.20;;;;;;;;;;4986048;28;20026;-61
2022/11/09 10:29:53;;;;;;;28.05;3.22;;;;;;;;;;4985924;28;20030;-61
2022/11/09 10:32:21;;;;;;;17.55;2.92;;;;;;;;;;4984316;28;20039;-61
2022/11/09 10:34:49;;;;;;;18.45;3.35;;;;;;;;;;4982865;28;20026;-62
2022/11/09 10:37:18;;;;;;;22.23;3.30;;;;;;;;;;4985775;28;20031;-61
2022/11/09 10:40:15;;;;;;;20.00;3.70;;;;;;;;;;4985099;28;20019;-62
2022/11/09 10:43:02;;;;;;;18.60;3.22;;;;;;;;;;4992444;28;20041;-61
2022/11/09 10:45:57;;;;;;;22.08;3.92;;;;;;;;;;4982208;28;20049;-62
2022/11/09 10:48:42;;;;;;;26.58;3.40;;;;;;;;;;4977306;28;20049;-62
2022/11/09 10:51:40;;;;;;;18.80;3.17;;;;;;;;;;4989454;28;20050;-61
2022/11/09 10:54:27;;;;;;;20.00;3.72;;;;;;;;;;4988598;28;20053;-61
2022/11/09 10:57:15;;;;;;;17.23;3.33;;;;;;;;;;4985881;28;20552;-61
2022/11/09 11:00:00;;;;;;;21.70;3.55;;;;;;;;;;4982128;28;20049;-61
2022/11/09 11:02:46;;;;;;;16.60;3.72;;;;;;;;;;4987644;28;20395;-62
2022/11/09 11:05:31;;;;;;;17.27;2.80;;;;;;;;;;4985707;28;20045;-61
2022/11/09 11:08:30;;;;;;;13.52;2.90;;;;;;;;;;4993050;28;20092;-61
2022/11/09 11:11:20;;;;;;;27.05;3.17;;;;;;;;;;4994643;28;20097;-62
2022/11/09 11:14:17;;;;;;;16.83;2.85;;;;;;;;;;4994946;28;20083;-61
2022/11/09 11:17:01;;;;;;;15.32;2.50;;;;;;;;;;4979310;28;20118;-61
2022/11/09 11:19:47;;;;;;;26.77;2.95;;;;;;;;;;4975550;28;20123;-61
2022/11/09 11:22:31;;;;;;;17.23;2.90;;;;;;;;;;4980601;28;20091;-61
2022/11/09 11:25:20;;;;;;;13.77;3.15;;;;;;;;;;4985538;28;20046;-61
2022/11/09 11:28:21;;;;;;;14.82;2.60;;;;;;;;;;4984303;28;20085;-62
2022/11/09 11:31:16;;;;;;;28.30;3.60;;;;;;;;;;4981272;28;20126;-62
2022/11/09 11:34:02;;;;;;;16.45;2.63;;;;;;;;;;4977951;28;20073;-62
2022/11/09 11:36:48;;;;;;;20.35;4.03;;;;;;;;;;4982901;28;20395;-62
2022/11/09 11:39:39;;;;;;;22.63;2.83;;;;;;;;;;4977199;28;20430;-62
2022/11/09 11:42:42;;;;;;;22.13;3.40;;;;;;;;;;4979061;28;20046;-61
2022/11/09 11:45:39;;;;;;;12.43;2.78;;;;;;;;;;4974978;28;20069;-61
2022/11/09 11:48:31;;;;;;;16.38;2.75;;;;;;;;;;4977835;28;20056;-61
2022/11/09 11:51:23;;;;;;;19.40;3.55;;;;;;;;;;4976687;28;20049;-62
2022/11/09 11:54:26;;;;;;;17.35;2.78;;;;;;;;;;4976679;28;20475;-61
2022/11/09 11:57:17;;;;;;;17.02;3.28;;;;;;;;;;4982063;28;20092;-61
2022/11/09 12:00:10;;;;;;;14.38;2.65;;;;;;;;;;4984433;28;20045;-61
2022/11/09 12:03:25;;;;;;;27.00;5.63;;;;;;;;;;4983240;28;20044;-61
2022/11/09 12:06:28;;;;;;;25.40;3.55;;;;;;;;;;4973615;28;20057;-61
2022/11/09 12:09:37;;;;;;;20.88;2.88;;;;;;;;;;4975849;28;20050;-62
2022/11/09 12:12:25;;;;;;;14.48;2.30;;;;;;;;;;4977907;28;20518;-61
2022/11/09 12:15:21;;;;;;;17.60;2.25;;;;;;;;;;4978717;28;20132;-61
2022/11/09 12:18:15;;;;;;;19.90;2.70;;;;;;;;;;4979945;28;20045;-62
2022/11/09 12:20:59;;;;;;;;;;;;;;;;;;4975331;28;20053;-61
2022/11/09 12:23:44;;;;;;;18.33;3.22;;;;;;;;;;4975512;28;19916;-62
2022/11/09 12:26:38;;;;;;;19.92;2.83;;;;;;;;;;4977859;28;20099;-61
2022/11/09 12:29:27;;;;;;;11.43;2.05;;;;;;;;;;4978352;28;20518;-62
2022/11/09 12:32:30;;;;;;;9.82;2.05;;;;;;;;;;4977918;28;20557;-61
2022/11/09 12:35:21;;;;;;;15.07;2.40;;;;;;;;;;4977607;28;20065;-61
2022/11/09 12:38:29;;;;;;;13.30;2.00;;;;;;;;;;4979246;28;20049;-62
2022/11/09 12:41:15;;;;;;;19.88;2.85;;;;;;;;;;4976601;28;20076;-62
2022/11/09 12:44:06;;;;;;;16.85;2.50;;;;;;;;;;4976801;28;20148;-62
2022/11/09 12:46:54;;;;;;;16.25;2.28;;;;;;;;;;5012467;28;20160;-61
2022/11/09 12:49:40;;;;;;;19.08;3.28;;;;;;;;;;4978614;28;20080;-61
2022/11/09 12:52:26;;;;;;;23.33;3.00;;;;;;;;;;4980705;28;20413;-62
2022/11/09 12:55:15;;;;;;;12.38;2.33;;;;;;;;;;4974590;28;20617;-62
2022/11/09 12:58:00;;;;;;;27.52;3.25;;;;;;;;;;4996672;28;20049;-61
2022/11/09 13:00:46;;;;;;;17.67;3.67;;;;;;;;;;4979314;28;20568;-61
2022/11/09 13:03:37;;;;;;;20.95;3.00;;;;;;;;;;4975914;28;20054;-62
2022/11/09 13:06:26;;;;;;;22.58;3.10;;;;;;;;;;4978481;28;20434;-61
2022/11/09 13:09:14;;;;;;;23.00;2.63;;;;;;;;;;4980308;28;20095;-61
2022/11/09 13:11:58;;;;;;;18.90;2.65;;;;;;;;;;4975058;28;20045;-61
2022/11/09 13:14:44;;;;;;;16.45;2.35;;;;;;;;;;4975218;28;20046;-61
2022/11/09 13:17:29;;;;;;;20.48;3.33;;;;;;;;;;4978597;28;20037;-61
2022/11/09 13:20:50;;;;;;;13.45;2.33;;;;;;;;;;4985382;28;20054;-61
2022/11/09 13:23:39;;;;;;;17.25;3.38;;;;;;;;;;4905501;28;20553;-61
2022/11/09 13:26:32;;;;;;;17.17;2.72;;;;;;;;;;4906842;29;20055;-61
2022/11/09 13:29:40;;;;;;;25.55;2.70;;;;;;;;;;4904366;29;20216;-61
2022/11/09 13:32:25;;;;;;;25.77;3.05;;;;;;;;;;4907277;28;20046;-61
2022/11/09 13:35:29;;;;;;;16.52;3.13;;;;;;;;;;4905005;28;20067;-61
2022/11/09 13:38:15;;;;;;;13.80;2.50;;;;;;;;;;4904569;28;20059;-61
2022/11/09 13:41:01;;;;;;;12.65;2.30;;;;;;;;;;4903718;28;20102;-61
2022/11/09 13:43:46;;;;;;;18.85;2.22;;;;;;;;;;4906140;28;20039;-61
2022/11/09 13:46:35;;;;;;;15.18;3.72;;;;;;;;;;4905651;29;20062;-61
2022/11/09 13:49:38;;;;;;;19.20;3.42;;;;;;;;;;4907473;28;20632;-61
2022/11/09 13:52:41;;;;;;;17.88;2.90;;;;;;;;;;4906857;28;20051;-61
2022/11/09 13:55:36;;;;;;;14.32;2.60;;;;;;;;;;4906806;28;20421;-61
2022/11/09 13:58:24;;;;;;;22.58;3.25;;;;;;;;;;4973160;28;20083;-61
2022/11/09 14:01:27;;;;;;;17.02;2.38;;;;;;;;;;4979393;28;20626;-61
2022/11/09 14:04:12;;;;;;;;;;;;;;;;;;4977566;28;20046;-61
2022/11/09 14:07:05;;;;;;;17.88;2.53;;;;;;;;;;4978422;28;19924;-62
2022/11/09 14:10:00;;;;;;;10.27;2.20;;;;;;;;;;4975935;28;20046;-61
2022/11/09 14:12:50;;;;;;;18.88;3.38;;;;;;;;;;4973939;28;20411;-61
2022/11/09 14:15:50;;;;;;;24.08;2.92;;;;;;;;;;4978309;28;20049;-61
2022/11/09 14:18:35;;;;;;;18.00;2.80;;;;;;;;;;4978669;28;20138;-61
2022/11/09 14:21:19;;;;;;;20.45;2.88;;;;;;;;;;4978031;28;20042;-61
2022/11/09 14:24:13;;;;;;;19.90;2.83;;;;;;;;;;4970785;28;20568;-61
2022/11/09 14:26:58;;;;;;;21.40;2.90;;;;;;;;;;4979056;28;20416;-61
2022/11/09 14:29:54;;;;;;;19.60;2.90;;;;;;;;;;4973955;28;20038;-61
2022/11/09 14:32:38;;;;;;;17.00;2.95;;;;;;;;;;4978993;28;20119;-61
2022/11/09 14:35:25;;;;;;;13.27;2.80;;;;;;;;;;4978181;28;20112;-61
2022/11/09 14:38:15;;;;;;;28.83;3.03;;;;;;;;;;4976230;28;20050;-61
2022/11/09 14:41:01;;;;;;;18.27;2.53;;;;;;;;;;4972927;28;20053;-61
2022/11/09 14:43:48;;;;;;;18.55;2.40;;;;;;;;;;4979080;28;20034;-61
2022/11/09 14:46:33;;;;;;;19.80;3.70;;;;;;;;;;4976206;28;20050;-61
2022/11/09 14:49:18;;;;;;;25.85;3.25;;;;;;;;;;4971691;28;20083;-62
2022/11/09 14:52:03;;;;;;;13.30;3.03;;;;;;;;;;4977854;28;20079;-61
2022/11/09 14:54:48;;;;;;;35.25;4.97;;;;;;;;;;4974564;28;20037;-61
2022/11/09 14:57:35;;;;;;;15.90;3.08;;;;;;;;;;4980315;28;20031;-61
2022/11/09 15:00:28;;;;;;;10.27;2.47;;;;;;;;;;4975690;28;20042;-61
2022/11/09 15:03:27;;;;;;;18.63;2.53;;;;;;;;;;4981808;28;20051;-62
2022/11/09 15:06:16;;;;;;;21.70;3.05;;;;;;;;;;4977742;28;20388;-61
2022/11/09 15:09:04;;;;;;;17.25;3.15;;;;;;;;;;4984405;28;20091;-61
2022/11/09 15:11:48;;;;;;;15.55;2.90;;;;;;;;;;4986037;28;20126;-61
2022/11/09 15:14:34;;;;;;;13.57;1.77;;;;;;;;;;4979331;28;20076;-62